^^
Lisbon, NH - Weather Station Historical Data
Daily Summary for June 6, 2021 Units:  English    Metric   Both
Daily Weekly Monthly Yearly
  High: Low: Average:
Temperature: 91.6 °F 65.3 °F 77.3 °F
Dew Point: 71.6 °F 61.6 °F 66.3 °F
Humidity: 100% 37.9% 73%
Wind Speed: 4.7mph 0mph 0.8mph
Wind Gust: 13mph - -
Wind- - SSW
Pressure: 29.94 in 29.82 in -
Precipitation: 0.06 in    
 
 
Tabular Data for June 6, 2021
Time Temperature Dew Point Pressure Wind Wind Speed Wind Gust Humidity Rainfall Rate (Hourly) solar
00:04 68.6 °F 68.4 °F 29.82 in Calm     99.4% 0.00 in 0 W/m2
00:09 68.5 °F 68.4 °F 29.82 in Calm     99.8% 0.00 in 0 W/m2
00:14 68.4 °F 68.4 °F 29.83 in Calm     100% 0.00 in 0 W/m2
00:19 68.3 °F 68.3 °F 29.83 in Calm     100% 0.02 in 0 W/m2
00:24 68.3 °F 68.3 °F 29.83 in WSW 0.3 mph 3 mph 100% 0.05 in 0 W/m2
00:29 68.3 °F 68.3 °F 29.83 in NE 0.4 mph 3 mph 100% 0.05 in 0 W/m2
00:34 68.2 °F 68.2 °F 29.83 in Calm     100% 0.05 in 0 W/m2
00:39 68 °F 68 °F 29.83 in Calm     100% 0.05 in 0 W/m2
00:44 67.8 °F 67.8 °F 29.83 in NE 0.1 mph 1 mph 100% 0.05 in 0 W/m2
00:49 67.7 °F 67.7 °F 29.83 in Calm     100% 0.05 in 0 W/m2
00:54 67.5 °F 67.5 °F 29.83 in North 0.2 mph 1 mph 100% 0.05 in 0 W/m2
00:59 67.4 °F 67.4 °F 29.84 in Calm     100% 0.05 in 0 W/m2
01:04 67.4 °F 67.4 °F 29.84 in Calm     100% 0.05 in 0 W/m2
01:09 67.3 °F 67.3 °F 29.84 in Calm     100% 0.05 in 0 W/m2
01:14 67.3 °F 67.3 °F 29.84 in Calm     100% 0.05 in 0 W/m2
01:19 67.2 °F 67.2 °F 29.84 in Calm     100% 0.05 in 0 W/m2
01:24 67.1 °F 67.1 °F 29.84 in Calm     100% 0.05 in 0 W/m2
01:29 67.1 °F 67.1 °F 29.85 in Calm     100% 0.02 in 0 W/m2
01:34 67.1 °F 67.1 °F 29.85 in Calm     100% 0.02 in 0 W/m2
01:39 67.1 °F 67.1 °F 29.85 in Calm     100% 0.00 in 0 W/m2
01:44 66.9 °F 66.9 °F 29.85 in Calm     100% 0.00 in 0 W/m2
01:49 66.9 °F 66.9 °F 29.85 in Calm     100% 0.00 in 0 W/m2
01:54 66.9 °F 66.9 °F 29.85 in Calm     100% 0.00 in 0 W/m2
01:59 66.8 °F 66.8 °F 29.85 in Calm     100% 0.00 in 0 W/m2
02:04 66.8 °F 66.8 °F 29.85 in Calm     100% 0.00 in 0 W/m2
02:09 66.8 °F 66.8 °F 29.85 in Calm     100% 0.00 in 0 W/m2
02:14 66.9 °F 66.9 °F 29.85 in Calm     100% 0.00 in 0 W/m2
02:19 66.8 °F 66.8 °F 29.85 in Calm     100% 0.00 in 0 W/m2
02:24 66.8 °F 66.8 °F 29.85 in Calm     100% 0.00 in 0 W/m2
02:29 66.7 °F 66.7 °F 29.85 in Calm     100% 0.00 in 0 W/m2
02:34 66.6 °F 66.6 °F 29.85 in Calm     100% 0.00 in 0 W/m2
02:39 66.6 °F 66.6 °F 29.85 in Calm     100% 0.00 in 0 W/m2
02:44 66.5 °F 66.5 °F 29.86 in Calm     100% 0.00 in 0 W/m2
02:49 66.4 °F 66.4 °F 29.86 in Calm     100% 0.00 in 0 W/m2
02:54 66.4 °F 66.4 °F 29.86 in Calm     100% 0.00 in 0 W/m2
02:59 66.4 °F 66.4 °F 29.86 in Calm     100% 0.00 in 0 W/m2
03:04 66.4 °F 66.4 °F 29.86 in Calm     100% 0.00 in 0 W/m2
03:09 66.4 °F 66.4 °F 29.86 in Calm     100% 0.00 in 0 W/m2
03:14 66.3 °F 66.3 °F 29.86 in Calm     100% 0.00 in 0 W/m2
03:19 66.3 °F 66.3 °F 29.86 in Calm     100% 0.00 in 0 W/m2
03:24 66.3 °F 66.3 °F 29.86 in Calm     100% 0.00 in 0 W/m2
03:29 66.1 °F 66.1 °F 29.86 in Calm     100% 0.00 in 0 W/m2
03:34 66.3 °F 66.3 °F 29.86 in Calm     100% 0.00 in 0 W/m2
03:39 66.4 °F 66.4 °F 29.86 in Calm     100% 0.00 in 0 W/m2
03:44 66.3 °F 66.3 °F 29.86 in Calm     100% 0.00 in 0 W/m2
03:49 66.1 °F 66.1 °F 29.86 in Calm     100% 0.00 in 0 W/m2
03:54 66.1 °F 66.1 °F 29.86 in Calm     100% 0.00 in 0 W/m2
03:59 66 °F 66 °F 29.86 in Calm     100% 0.00 in 0 W/m2
04:04 65.8 °F 65.8 °F 29.86 in Calm     100% 0.00 in 0 W/m2
04:09 65.8 °F 65.8 °F 29.86 in Calm     100% 0.00 in 0 W/m2
04:14 65.7 °F 65.7 °F 29.86 in Calm     100% 0.00 in 0 W/m2
04:19 65.6 °F 65.6 °F 29.86 in Calm     100% 0.00 in 0 W/m2
04:24 65.6 °F 65.6 °F 29.86 in Calm     100% 0.00 in 0 W/m2
04:29 65.6 °F 65.6 °F 29.87 in Calm     100% 0.00 in 0 W/m2
04:34 65.6 °F 65.6 °F 29.87 in Calm     100% 0.00 in 0 W/m2
04:39 65.6 °F 65.6 °F 29.87 in Calm     100% 0.00 in 0 W/m2
04:44 65.6 °F 65.6 °F 29.87 in Calm     100% 0.00 in 0 W/m2
04:49 65.5 °F 65.5 °F 29.87 in Calm     100% 0.00 in 0 W/m2
04:54 65.5 °F 65.5 °F 29.87 in Calm     100% 0.00 in 0 W/m2
04:59 65.5 °F 65.5 °F 29.88 in Calm     100% 0.00 in 0 W/m2
05:04 65.3 °F 65.3 °F 29.88 in Calm     100% 0.00 in 0 W/m2
05:09 65.3 °F 65.3 °F 29.88 in Calm     100% 0.00 in 5 W/m2
05:14 65.3 °F 65.3 °F 29.88 in Calm     100% 0.01 in 9 W/m2
05:19 65.4 °F 65.4 °F 29.88 in Calm     100% 0.01 in 14 W/m2
05:24 65.5 °F 65.5 °F 29.88 in Calm     100% 0.01 in 16 W/m2
05:29 65.5 °F 65.5 °F 29.88 in Calm     100% 0.01 in 18 W/m2
05:34 65.3 °F 65.3 °F 29.88 in Calm     100% 0.01 in 21 W/m2
05:39 65.6 °F 65.6 °F 29.88 in Calm     100% 0.01 in 30 W/m2
05:44 66.4 °F 66.4 °F 29.88 in Calm   1 mph 100% 0.01 in 49 W/m2
05:49 66.4 °F 66.4 °F 29.88 in NE 0.2 mph 2 mph 100% 0.01 in 49 W/m2
05:54 66.6 °F 66.6 °F 29.88 in NE 0.4 mph 2 mph 100% 0.01 in 86 W/m2
05:59 66.9 °F 66.9 °F 29.89 in Calm     100% 0.01 in 86 W/m2
06:04 67 °F 67 °F 29.89 in NE 0.2 mph 1 mph 100% 0.01 in 65 W/m2
06:09 67 °F 67 °F 29.89 in NE 0.4 mph 2 mph 100% 0.01 in 58 W/m2
06:14 67.1 °F 67.1 °F 29.89 in NE 0.5 mph 2 mph 100% 0.01 in 63 W/m2
06:19 66.9 °F 66.9 °F 29.89 in ENE 0.4 mph 2 mph 100% 0.00 in 72 W/m2
06:24 66.9 °F 66.9 °F 29.89 in Calm   1 mph 100% 0.00 in 83 W/m2
06:29 67 °F 67 °F 29.89 in ENE 0.7 mph 2 mph 100% 0.00 in 74 W/m2
06:34 67 °F 67 °F 29.89 in ENE 0.6 mph 2 mph 100% 0.00 in 83 W/m2
06:39 66.9 °F 66.9 °F 29.89 in ENE 0.3 mph 2 mph 100% 0.00 in 106 W/m2
06:44 67 °F 67 °F 29.90 in Calm   2 mph 100% 0.00 in 153 W/m2
06:49 67.3 °F 67.3 °F 29.90 in Calm     100% 0.00 in 190 W/m2
06:54 67.7 °F 67.7 °F 29.90 in Calm   1 mph 100% 0.00 in 311 W/m2
06:59 68.2 °F 68.2 °F 29.90 in NE 0.3 mph 2 mph 100% 0.00 in 311 W/m2
07:04 68.4 °F 68.4 °F 29.89 in Calm   2 mph 100% 0.00 in 299 W/m2
07:09 68.6 °F 68.6 °F 29.89 in SE 0.1 mph 1 mph 100% 0.00 in 336 W/m2
07:14 68.6 °F 68.6 °F 29.90 in SE 0.3 mph 2 mph 100% 0.00 in 392 W/m2
07:19 68.8 °F 68.8 °F 29.90 in SSE 0.6 mph 2 mph 100% 0.00 in 396 W/m2
07:24 69.1 °F 69.1 °F 29.90 in South 0.5 mph 2 mph 100% 0.00 in 406 W/m2
07:29 69.6 °F 69.6 °F 29.90 in ESE 0.3 mph 2 mph 100% 0.00 in 412 W/m2
07:34 70 °F 70 °F 29.90 in South 0.4 mph 2 mph 100% 0.00 in 428 W/m2
07:39 70.5 °F 70.5 °F 29.90 in SW 0.3 mph 2 mph 100% 0.00 in 380 W/m2
07:44 70.9 °F 70.9 °F 29.91 in South 0.5 mph 2 mph 100% 0.00 in 443 W/m2
07:49 71.7 °F 71.6 °F 29.91 in South 0.4 mph 1 mph 99.7% 0.00 in 447 W/m2
07:54 72 °F 71.5 °F 29.91 in ESE 0.6 mph 2 mph 98.2% 0.00 in 465 W/m2
07:59 72.2 °F 70.9 °F 29.91 in East 0.3 mph 1 mph 95.9% 0.00 in 459 W/m2
08:04 72.6 °F 70.5 °F 29.90 in East 0.2 mph 1 mph 93.1% 0.00 in 473 W/m2
08:09 73.1 °F 70 °F 29.90 in ENE 1 mph 2 mph 90% 0.00 in 487 W/m2
08:14 73.3 °F 69.5 °F 29.90 in East 0.9 mph 2 mph 87.8% 0.00 in 503 W/m2
08:19 73.6 °F 69.8 °F 29.90 in ENE 0.6 mph 2 mph 88% 0.00 in 505 W/m2
08:24 74.5 °F 69.9 °F 29.90 in East 0.1 mph 1 mph 85.6% 0.00 in 533 W/m2
08:29 75.3 °F 69.4 °F 29.90 in SSW 0.6 mph 2 mph 82% 0.00 in 545 W/m2
08:34 76 °F 68.4 °F 29.90 in SSW 0.9 mph 3 mph 77.4% 0.00 in 561 W/m2
08:35 76.3 °F 67.6 °F 29.90 in Calm   1 mph 74.5% 0.00 in 565 W/m2
08:44 77.1 °F 68.8 °F 29.90 in SW 1.7 mph 5 mph 75.5% 0.00 in 593 W/m2
08:49 77.6 °F 68.9 °F 29.90 in SW 0.4 mph 7 mph 74.5% 0.00 in 609 W/m2
08:54 77.7 °F 67.7 °F 29.90 in SSW 0.4 mph 3 mph 71.4% 0.00 in 625 W/m2
08:59 78 °F 67.6 °F 29.90 in WSW 0.4 mph 3 mph 70.4% 0.00 in 639 W/m2
09:04 78.2 °F 65.5 °F 29.90 in SW 3.7 mph 10 mph 65.1% 0.00 in 658 W/m2
09:09 78.6 °F 64.9 °F 29.90 in SW 1.3 mph 5 mph 63% 0.00 in 735 W/m2
09:14 79 °F 64.4 °F 29.90 in SW 2.1 mph 6 mph 60.9% 0.00 in 735 W/m2
09:19 79 °F 63.9 °F 29.90 in SW 3.2 mph 11 mph 60.1% 0.00 in 567 W/m2
09:24 78.9 °F 63.1 °F 29.90 in SW 3 mph 8 mph 58.3% 0.00 in 567 W/m2
09:29 79.2 °F 63.5 °F 29.90 in SW 1 mph 8 mph 58.8% 0.00 in 567 W/m2
09:34 78.9 °F 63.8 °F 29.90 in WNW 0.8 mph 2 mph 59.9% 0.00 in 533 W/m2
09:39 78.7 °F 63.4 °F 29.90 in WSW 0.9 mph 5 mph 59.4% 0.00 in 595 W/m2
09:44 78.8 °F 64.4 °F 29.91 in SW 0.9 mph 5 mph 61.3% 0.00 in 595 W/m2
09:49 78.8 °F 64.2 °F 29.91 in SW 1.4 mph 7 mph 60.9% 0.00 in 530 W/m2
09:54 78.9 °F 63.9 °F 29.91 in SW 0.9 mph 8 mph 60% 0.00 in 894 W/m2
09:59 79.5 °F 64.4 °F 29.91 in WSW 1 mph 5 mph 60% 0.00 in 894 W/m2
10:04 80.1 °F 64.6 °F 29.91 in West 1.6 mph 6 mph 59.1% 0.00 in 809 W/m2
10:09 80.8 °F 64.3 °F 29.91 in WNW 1 mph 5 mph 57.4% 0.00 in 813 W/m2
10:14 81.2 °F 64.5 °F 29.91 in WSW 0.8 mph 5 mph 57% 0.00 in 827 W/m2
10:19 81.7 °F 64.7 °F 29.91 in West 1.3 mph 3 mph 56.4% 0.00 in 829 W/m2
10:24 81.9 °F 64.6 °F 29.91 in SSW 1.5 mph 6 mph 55.9% 0.00 in 841 W/m2
10:29 82.4 °F 63.9 °F 29.91 in SSW 2.7 mph 9 mph 53.6% 0.00 in 852 W/m2
10:34 82.8 °F 64.2 °F 29.90 in SW 3.4 mph 7 mph 53.6% 0.00 in 869 W/m2
10:39 83.1 °F 64.3 °F 29.90 in SW 2.7 mph 7 mph 53.2% 0.00 in 901 W/m2
10:44 83.4 °F 64.8 °F 29.90 in SW 1.1 mph 7 mph 53.6% 0.00 in 906 W/m2
10:49 83.7 °F 64.3 °F 29.90 in SSW 3 mph 10 mph 52.1% 0.00 in 985 W/m2
10:54 83.9 °F 65.5 °F 29.90 in SSW 1.2 mph 6 mph 53.9% 0.00 in 1052 W/m2
10:59 84.6 °F 65.2 °F 29.90 in SW 1.4 mph 6 mph 52.3% 0.00 in 1070 W/m2
11:04 85.4 °F 64.1 °F 29.90 in SW 2.3 mph 12 mph 49% 0.00 in 1070 W/m2
11:09 85.7 °F 64.2 °F 29.90 in SW 3.8 mph 12 mph 48.7% 0.00 in 1218 W/m2
11:14 85.2 °F 64.5 °F 29.90 in SW 3.5 mph 8 mph 50% 0.00 in 1218 W/m2
11:19 84.9 °F 65.4 °F 29.90 in SW 2 mph 6 mph 52.1% 0.00 in 795 W/m2
11:24 84.9 °F 65.4 °F 29.90 in SW 2.2 mph 7 mph 52.2% 0.00 in 586 W/m2
11:29 84.7 °F 64.9 °F 29.90 in SW 2.2 mph 11 mph 51.4% 0.00 in 586 W/m2
11:34 84.7 °F 65.6 °F 29.90 in SW 2 mph 6 mph 52.8% 0.00 in 721 W/m2
11:39 84.7 °F 66 °F 29.90 in SW 1.8 mph 8 mph 53.5% 0.00 in 751 W/m2
11:44 84.9 °F 66.3 °F 29.90 in SW 1.2 mph 5 mph 53.7% 0.00 in 978 W/m2
11:49 85.3 °F 66 °F 29.90 in WSW 2.5 mph 7 mph 52.6% 0.00 in 978 W/m2
11:54 85.2 °F 65.9 °F 29.90 in SW 1.1 mph 5 mph 52.5% 0.00 in 978 W/m2
11:59 84.9 °F 65.8 °F 29.90 in SW 2.2 mph 6 mph 52.9% 0.00 in 964 W/m2
12:04 84.9 °F 65.6 °F 29.89 in SW 3.1 mph 8 mph 52.4% 0.00 in 957 W/m2
12:09 85.4 °F 65.8 °F 29.89 in SW 3.7 mph 7 mph 51.9% 0.00 in 992 W/m2
12:14 86.2 °F 66.4 °F 29.89 in SW 1.2 mph 7 mph 51.8% 0.00 in 996 W/m2
12:19 86.9 °F 65.2 °F 29.89 in SSW 2.9 mph 10 mph 48.6% 0.00 in 1008 W/m2
12:24 87.1 °F 65.6 °F 29.89 in SW 3 mph 13 mph 49% 0.00 in 1028 W/m2
12:29 87.4 °F 65.2 °F 29.89 in SW 3.2 mph 11 mph 47.9% 0.00 in 1061 W/m2
12:34 87.9 °F 65.1 °F 29.89 in SW 4 mph 11 mph 46.9% 0.00 in 1075 W/m2
12:39 88 °F 65.1 °F 29.89 in SW 3.1 mph 12 mph 46.7% 0.00 in 1061 W/m2
12:44 88.2 °F 65.9 °F 29.89 in SW 2.7 mph 8 mph 47.8% 0.00 in 1042 W/m2
12:49 88.2 °F 65.8 °F 29.88 in SW 3.3 mph 11 mph 47.6% 0.00 in 1006 W/m2
12:54 88.2 °F 65.7 °F 29.88 in SSW 2.5 mph 11 mph 47.4% 0.00 in 987 W/m2
12:59 88.6 °F 66.4 °F 29.88 in SW 3 mph 8 mph 48% 0.00 in 982 W/m2
13:04 88.8 °F 65.4 °F 29.87 in SW 1.9 mph 7 mph 46.1% 0.00 in 966 W/m2
13:09 88.9 °F 66.3 °F 29.87 in SW 3.3 mph 11 mph 47.4% 0.00 in 948 W/m2
13:14 89 °F 65.3 °F 29.87 in SW 2.6 mph 7 mph 45.7% 0.00 in 948 W/m2
13:19 89.1 °F 65.3 °F 29.87 in SSW 2.1 mph 7 mph 45.4% 0.00 in 952 W/m2
13:24 89.4 °F 65.6 °F 29.87 in SW 2.6 mph 7 mph 45.5% 0.00 in 964 W/m2
13:29 89.5 °F 65 °F 29.87 in SW 2.1 mph 7 mph 44.4% 0.00 in 961 W/m2
13:34 89.8 °F 65.2 °F 29.87 in WSW 3.3 mph 10 mph 44.3% 0.00 in 982 W/m2
13:39 89.9 °F 65.3 °F 29.87 in WSW 2.3 mph 6 mph 44.3% 0.00 in 982 W/m2
13:44 90.1 °F 64.8 °F 29.87 in SW 2.5 mph 6 mph 43.3% 0.00 in 982 W/m2
13:49 90 °F 63.2 °F 29.86 in SSW 2 mph 6 mph 41% 0.00 in 966 W/m2
13:54 90 °F 63.2 °F 29.86 in SSW 1.9 mph 7 mph 41% 0.00 in 943 W/m2
13:59 90.2 °F 64.2 °F 29.86 in SSW 1.1 mph 2 mph 42.2% 0.00 in 926 W/m2
14:04 90.4 °F 62.5 °F 29.86 in NNW 0.8 mph 5 mph 39.5% 0.00 in 922 W/m2
14:09 90.6 °F 62.1 °F 29.86 in SSE 0.6 mph 2 mph 38.8% 0.00 in 910 W/m2
14:14 90.8 °F 61.6 °F 29.86 in South 1.3 mph 4 mph 37.9% 0.00 in 910 W/m2
14:19 91.1 °F 63.3 °F 29.86 in South 0.8 mph 4 mph 39.9% 0.00 in 913 W/m2
14:24 91.3 °F 63.6 °F 29.86 in NW 0.2 mph 2 mph 40% 0.00 in 904 W/m2
14:29 91.6 °F 62.5 °F 29.86 in SW 1 mph 3 mph 38.2% 0.00 in 883 W/m2
14:34 91.6 °F 62.9 °F 29.85 in SW 2.4 mph 8 mph 38.6% 0.00 in 883 W/m2
14:39 91.2 °F 63.8 °F 29.85 in WSW 1.5 mph 5 mph 40.3% 0.00 in 179 W/m2
14:44 90.9 °F 63.3 °F 29.85 in WSW 1.8 mph 6 mph 40% 0.00 in 213 W/m2
14:49 90.5 °F 63.5 °F 29.85 in SSW 0.9 mph 3 mph 40.8% 0.00 in 137 W/m2
14:54 90.1 °F 62.9 °F 29.85 in SSW 0.5 mph 2 mph 40.5% 0.00 in 223 W/m2
14:59 90.2 °F 63.7 °F 29.85 in NNE 0.6 mph 3 mph 41.5% 0.00 in 229 W/m2
15:04 90.5 °F 63.6 °F 29.84 in SW 3.7 mph 10 mph 41.1% 0.00 in 266 W/m2
15:09 90.3 °F 61.8 °F 29.84 in SW 4.7 mph 11 mph 38.7% 0.00 in 306 W/m2
15:14 90.2 °F 61.6 °F 29.84 in SW 1.9 mph 8 mph 38.6% 0.00 in 306 W/m2
15:19 89.9 °F 62.9 °F 29.84 in SW 3.1 mph 7 mph 40.8% 0.00 in 201 W/m2
15:24 89.6 °F 63.2 °F 29.84 in SSW 1.2 mph 4 mph 41.5% 0.00 in 192 W/m2
15:29 89.5 °F 61.9 °F 29.84 in SSW 1.2 mph 5 mph 39.9% 0.00 in 192 W/m2
15:34 89.7 °F 63.2 °F 29.84 in SSW 2 mph 8 mph 41.5% 0.00 in 178 W/m2
15:39 89.9 °F 63.1 °F 29.84 in SW 3 mph 8 mph 41% 0.00 in 158 W/m2
15:44 89.9 °F 62.2 °F 29.84 in SW 3.3 mph 8 mph 39.7% 0.00 in 172 W/m2
15:49 89.9 °F 61.9 °F 29.84 in SW 3.8 mph 9 mph 39.4% 0.00 in 172 W/m2
15:54 89.7 °F 61.9 °F 29.84 in SSW 2.4 mph 6 mph 39.5% 0.00 in 188 W/m2
15:59 89.8 °F 62.6 °F 29.84 in SSW 1.8 mph 5 mph 40.5% 0.00 in 215 W/m2
16:04 89.9 °F 62.9 °F 29.84 in SW 2.9 mph 10 mph 40.8% 0.00 in 215 W/m2
16:09 89.7 °F 63.7 °F 29.84 in SW 2 mph 10 mph 42.1% 0.00 in 223 W/m2
16:14 89.8 °F 64.5 °F 29.84 in SW 2.5 mph 6 mph 43.3% 0.00 in 236 W/m2
16:19 89.9 °F 63.2 °F 29.84 in SW 1.9 mph 6 mph 41.2% 0.00 in 236 W/m2
16:24 89.8 °F 63.2 °F 29.84 in SSW 1.1 mph 6 mph 41.3% 0.00 in 194 W/m2
16:29 89.7 °F 65.5 °F 29.84 in SW 0.5 mph 6 mph 44.9% 0.00 in 194 W/m2
16:34 89.5 °F 64.5 °F 29.84 in West 0.3 mph 2 mph 43.7% 0.00 in 178 W/m2
16:39 89.5 °F 64.4 °F 29.84 in Calm   1 mph 43.6% 0.00 in 171 W/m2
16:44 89.4 °F 64.8 °F 29.84 in SW 1.8 mph 7 mph 44.2% 0.00 in 174 W/m2
16:49 89.1 °F 65.6 °F 29.84 in SW 1.4 mph 7 mph 45.9% 0.00 in 199 W/m2
16:54 89 °F 65.1 °F 29.84 in SW 2.3 mph 6 mph 45.4% 0.00 in 190 W/m2
16:59 88.8 °F 64.4 °F 29.84 in SW 1.4 mph 6 mph 44.5% 0.00 in 164 W/m2
17:04 89 °F 65.3 °F 29.84 in SSW 1.6 mph 7 mph 45.6% 0.00 in 134 W/m2
17:09 89 °F 65.8 °F 29.84 in SW 0.6 mph 5 mph 46.3% 0.00 in 146 W/m2
17:14 89 °F 65.5 °F 29.84 in SSW 1 mph 3 mph 46% 0.00 in 116 W/m2
17:19 88.8 °F 64.8 °F 29.84 in WSW 1.4 mph 7 mph 45.2% 0.00 in 104 W/m2
17:24 88.5 °F 65.2 °F 29.84 in WSW 1.1 mph 7 mph 46.1% 0.00 in 130 W/m2
17:29 88.2 °F 65.4 °F 29.84 in SW 1.9 mph 7 mph 47% 0.00 in 130 W/m2
17:34 88 °F 65.6 °F 29.84 in SW 1 mph 7 mph 47.6% 0.00 in 114 W/m2
17:39 87.9 °F 66.1 °F 29.84 in SW 2.4 mph 7 mph 48.5% 0.00 in 95 W/m2
17:44 87.8 °F 66 °F 29.84 in SW 1.5 mph 8 mph 48.6% 0.00 in 79 W/m2
17:49 87.8 °F 64.9 °F 29.84 in SW 1.8 mph 10 mph 46.7% 0.00 in 70 W/m2
17:54 87.7 °F 65.5 °F 29.84 in WSW 1.7 mph 11 mph 47.9% 0.00 in 65 W/m2
17:59 87.4 °F 64.5 °F 29.85 in SW 1.8 mph 6 mph 46.6% 0.00 in 60 W/m2
18:04 87.1 °F 64.3 °F 29.85 in SW 1.4 mph 6 mph 46.7% 0.00 in 65 W/m2
18:09 86.9 °F 64.8 °F 29.85 in SW 0.9 mph 6 mph 47.8% 0.00 in 65 W/m2
18:14 86.6 °F 64.5 °F 29.85 in WSW 0.7 mph 2 mph 47.8% 0.00 in 53 W/m2
18:19 86.4 °F 65.3 °F 29.85 in SW 0.4 mph 2 mph 49.4% 0.00 in 51 W/m2
18:24 86.2 °F 65.2 °F 29.85 in West 0.3 mph 2 mph 49.7% 0.00 in 51 W/m2
18:29 86 °F 65.3 °F 29.85 in WSW 2.6 mph 7 mph 50.2% 0.00 in 49 W/m2
18:34 85.9 °F 65.5 °F 29.85 in SSW 0.3 mph 3 mph 50.6% 0.00 in 48 W/m2
18:39 85.8 °F 65.6 °F 29.85 in SW 1.2 mph 6 mph 51% 0.00 in 48 W/m2
18:44 85.6 °F 65.7 °F 29.85 in SW 1.5 mph 8 mph 51.5% 0.00 in 46 W/m2
18:49 85.5 °F 65.6 °F 29.85 in WSW 0.9 mph 5 mph 51.5% 0.00 in 46 W/m2
18:54 85.3 °F 66 °F 29.85 in WNW 0.3 mph 1 mph 52.5% 0.00 in 44 W/m2
18:59 85.3 °F 66 °F 29.86 in WNW 0.2 mph 1 mph 52.5% 0.00 in 42 W/m2
19:04 85.1 °F 65.9 °F 29.86 in WSW 0.7 mph 2 mph 52.6% 0.00 in 51 W/m2
19:09 84.9 °F 66.5 °F 29.86 in WSW 1 mph 3 mph 54.3% 0.00 in 51 W/m2
19:14 84.6 °F 66.2 °F 29.87 in WSW 1.1 mph 7 mph 54.2% 0.00 in 39 W/m2
19:19 84.4 °F 66.7 °F 29.87 in Calm   2 mph 55.5% 0.00 in 35 W/m2
19:24 84.1 °F 67.1 °F 29.87 in Calm     56.6% 0.00 in 33 W/m2
19:29 83.8 °F 67.4 °F 29.87 in Calm     57.9% 0.00 in 32 W/m2
19:34 83.3 °F 68.1 °F 29.87 in Calm     60.3% 0.00 in 26 W/m2
19:39 82.6 °F 68.2 °F 29.87 in Calm     61.8% 0.00 in 23 W/m2
19:44 82 °F 68.5 °F 29.87 in Calm     63.6% 0.00 in 21 W/m2
19:49 81.4 °F 68.6 °F 29.87 in Calm     65.1% 0.00 in 23 W/m2
19:54 81 °F 68.8 °F 29.87 in Calm     66.6% 0.00 in 23 W/m2
19:59 80.4 °F 68.9 °F 29.88 in Calm     68% 0.00 in 19 W/m2
20:04 80 °F 69.3 °F 29.88 in Calm     69.9% 0.00 in 16 W/m2
20:09 79.6 °F 69.4 °F 29.88 in Calm     71% 0.00 in 12 W/m2
20:14 79 °F 69 °F 29.88 in Calm     71.5% 0.00 in 11 W/m2
20:19 78.6 °F 68.8 °F 29.88 in Calm     72% 0.00 in 9 W/m2
20:24 78.3 °F 69.1 °F 29.88 in Calm     73.4% 0.00 in 5 W/m2
20:29 78 °F 69 °F 29.88 in Calm     74% 0.00 in 5 W/m2
20:34 77.7 °F 69.2 °F 29.88 in Calm     75.2% 0.00 in 0 W/m2
20:39 77.3 °F 69.3 °F 29.88 in Calm     76.3% 0.00 in 0 W/m2
20:44 76.9 °F 69.1 °F 29.89 in Calm     77% 0.00 in 0 W/m2
20:49 76.5 °F 69.1 °F 29.89 in Calm     78.1% 0.00 in 0 W/m2
20:54 76 °F 69.1 °F 29.89 in NW 0.1 mph 1 mph 79.1% 0.00 in 0 W/m2
20:59 75.6 °F 69 °F 29.89 in Calm     80.1% 0.00 in 0 W/m2
21:04 75.3 °F 69 °F 29.89 in Calm     81% 0.00 in 0 W/m2
21:09 74.9 °F 68.9 °F 29.89 in Calm     81.6% 0.00 in 0 W/m2
21:14 74.7 °F 69 °F 29.89 in Calm     82.4% 0.00 in 0 W/m2
21:19 74.3 °F 68.9 °F 29.89 in Calm     83% 0.00 in 0 W/m2
21:24 74 °F 68.7 °F 29.89 in Calm     83.3% 0.00 in 0 W/m2
21:29 73.9 °F 68.7 °F 29.90 in Calm     84% 0.00 in 0 W/m2
21:34 73.6 °F 68.6 °F 29.90 in Calm     84.5% 0.00 in 0 W/m2
21:39 73.4 °F 68.6 °F 29.90 in Calm     85% 0.00 in 0 W/m2
21:44 73.1 °F 68.4 °F 29.90 in NW 0.1 mph 1 mph 85.2% 0.00 in 0 W/m2
21:49 72.9 °F 68.5 °F 29.90 in Calm   1 mph 86% 0.00 in 0 W/m2
21:54 72.7 °F 68.3 °F 29.90 in WNW 0.1 mph 1 mph 86% 0.00 in 0 W/m2
21:59 72.5 °F 68.1 °F 29.91 in Calm   1 mph 86.3% 0.00 in 0 W/m2
22:04 72.3 °F 68.2 °F 29.91 in Calm     87% 0.00 in 0 W/m2
22:09 72.1 °F 68.1 °F 29.91 in Calm     87.3% 0.00 in 0 W/m2
22:14 72 °F 68.3 °F 29.91 in Calm     88% 0.00 in 0 W/m2
22:19 71.8 °F 68.1 °F 29.91 in Calm     88% 0.00 in 0 W/m2
22:24 71.6 °F 67.9 °F 29.91 in Calm     88.1% 0.00 in 0 W/m2
22:29 71.6 °F 68.2 °F 29.92 in Calm     89% 0.00 in 0 W/m2
22:34 71.5 °F 68.1 °F 29.92 in Calm     89% 0.00 in 0 W/m2
22:39 71.3 °F 67.9 °F 29.92 in Calm     89% 0.00 in 0 W/m2
22:44 71.1 °F 67.9 °F 29.92 in Calm     89.5% 0.00 in 0 W/m2
22:49 71 °F 67.9 °F 29.92 in Calm   1 mph 90% 0.00 in 0 W/m2
22:54 70.9 °F 67.8 °F 29.92 in Calm   1 mph 90% 0.00 in 0 W/m2
22:59 70.7 °F 67.6 °F 29.92 in Calm     90% 0.00 in 0 W/m2
23:04 70.5 °F 67.4 °F 29.92 in Calm     90% 0.00 in 0 W/m2
23:09 70.3 °F 67.3 °F 29.92 in Calm     90% 0.00 in 0 W/m2
23:14 70.2 °F 67.3 °F 29.93 in Calm     90.5% 0.00 in 0 W/m2
23:19 70 °F 67.3 °F 29.93 in Calm     91% 0.00 in 0 W/m2
23:24 69.9 °F 67.2 °F 29.93 in Calm     91% 0.00 in 0 W/m2
23:29 69.8 °F 67.3 °F 29.93 in Calm     91.8% 0.00 in 0 W/m2
23:34 69.8 °F 67.4 °F 29.93 in Calm     92% 0.00 in 0 W/m2
23:39 69.8 °F 67.4 °F 29.93 in Calm     92% 0.00 in 0 W/m2
23:44 69.6 °F 67.2 °F 29.93 in Calm     92% 0.00 in 0 W/m2
23:49 69.4 °F 66.9 °F 29.93 in Calm     92% 0.00 in 0 W/m2
23:54 69.2 °F 66.8 °F 29.93 in Calm     92% 0.00 in 0 W/m2
23:59 69 °F 66.9 °F 29.94 in Calm     92.8% 0.00 in 0 W/m2
Lisbon, New Hampshire, USA
Compliments of Weather Underground - 4 mb